createdAt,value
2023-01-13T00:03:25.635Z,39.83
2023-01-13T00:08:28.319Z,38.15
2023-01-13T00:13:31.809Z,48.70
2023-01-13T00:18:33.394Z,44.72
2023-01-13T00:23:35.411Z,40.38
2023-01-13T00:28:38.086Z,40.65
2023-01-13T00:33:39.501Z,42.33
2023-01-13T00:38:42.931Z,35.78
2023-01-13T00:43:44.717Z,38.35
2023-01-13T00:48:47.015Z,41.75
2023-01-13T00:53:49.407Z,34.95
2023-01-13T00:58:52.060Z,33.58
2023-01-13T01:03:54.252Z,33.38
2023-01-13T01:08:56.302Z,36.88
2023-01-13T01:13:59.239Z,37.78
2023-01-13T01:19:01.025Z,37.58
2023-01-13T01:24:03.209Z,40.63
2023-01-13T01:29:04.649Z,39.08
2023-01-13T01:34:06.129Z,32.95
2023-01-13T01:39:07.643Z,38.95
2023-01-13T01:44:31.190Z,40.55
2023-01-13T01:49:33.949Z,44.70
2023-01-13T01:54:48.232Z,47.67
2023-01-13T01:59:49.718Z,34.42
2023-01-13T02:04:53.391Z,31.80
2023-01-13T02:09:55.981Z,40.70
2023-01-13T02:15:15.659Z,29.02
2023-01-13T02:20:23.486Z,46.38
2023-01-13T02:25:24.939Z,30.13
2023-01-13T02:30:50.199Z,33.50
2023-01-13T02:35:57.747Z,36.45
2023-01-13T02:41:27.153Z,36.63
2023-01-13T02:46:33.005Z,26.23
2023-01-13T02:51:35.410Z,35.80
2023-01-13T02:56:39.204Z,38.88
2023-01-13T03:01:41.205Z,39.85
2023-01-13T03:06:42.591Z,37.25
2023-01-13T03:11:50.698Z,43.33
2023-01-13T03:17:10.595Z,35.78
2023-01-13T03:22:22.162Z,35.17
2023-01-13T03:27:35.640Z,37.90
2023-01-13T03:32:40.270Z,34.22
2023-01-13T03:37:45.684Z,36.85
2023-01-13T03:43:08.979Z,43.13
2023-01-13T03:48:13.730Z,35.00
2023-01-13T03:53:20.950Z,39.30
2023-01-13T03:58:28.481Z,33.78
2023-01-13T04:03:33.073Z,29.05
2023-01-13T04:08:37.583Z,25.33
2023-01-13T04:13:40.281Z,29.95
2023-01-13T04:18:42.043Z,30.30
2023-01-13T04:23:43.475Z,27.40
2023-01-13T04:28:44.884Z,24.13
2023-01-13T04:33:46.334Z,25.42
2023-01-13T04:38:47.791Z,29.98
2023-01-13T04:43:49.207Z,30.60
2023-01-13T04:48:51.116Z,31.58
2023-01-13T04:53:53.123Z,29.63
2023-01-13T04:58:54.548Z,25.38
2023-01-13T05:03:57.225Z,26.33
2023-01-13T05:08:58.671Z,33.95
2023-01-13T05:14:18.795Z,24.85
2023-01-13T05:19:20.202Z,27.08
2023-01-13T05:24:40.311Z,24.88
2023-01-13T05:29:41.687Z,24.08
2023-01-13T05:34:43.096Z,30.27
2023-01-13T05:40:03.295Z,21.52
2023-01-13T05:50:06.380Z,25.88
2023-01-13T05:55:07.924Z,29.10
2023-01-13T06:00:10.947Z,22.02
2023-01-13T06:05:12.332Z,28.63
2023-01-13T06:10:13.713Z,21.88
2023-01-13T06:15:15.130Z,25.83
2023-01-13T06:20:16.966Z,31.85
2023-01-13T06:25:22.044Z,28.63
2023-01-13T06:30:26.044Z,27.98
2023-01-13T06:35:30.074Z,33.85
2023-01-13T06:40:31.516Z,26.05
2023-01-13T06:45:33.094Z,26.90
2023-01-13T06:50:34.465Z,23.55
2023-01-13T06:55:36.340Z,26.60
2023-01-13T07:00:37.933Z,32.67
2023-01-13T07:05:40.139Z,26.92
2023-01-13T07:10:41.581Z,24.85
2023-01-13T07:15:52.621Z,35.88
2023-01-13T07:20:58.414Z,29.35
2023-01-13T07:26:00.224Z,28.33
2023-01-13T07:31:04.691Z,35.00
2023-01-13T07:36:07.819Z,28.13
2023-01-13T07:41:30.298Z,26.02
2023-01-13T07:46:32.110Z,35.42
2023-01-13T07:51:35.969Z,36.05
2023-01-13T07:56:37.356Z,21.48
2023-01-13T08:01:38.880Z,25.88
2023-01-13T08:06:43.833Z,25.15
2023-01-13T08:12:05.607Z,28.25
2023-01-13T08:17:10.529Z,33.33
2023-01-13T08:22:11.973Z,30.52
2023-01-13T08:27:13.416Z,26.73
2023-01-13T08:32:14.820Z,20.05
2023-01-13T08:37:16.290Z,25.60
2023-01-13T08:42:18.029Z,30.17
2023-01-13T08:47:20.112Z,30.80
2023-01-13T08:52:26.767Z,24.35
2023-01-13T08:57:28.788Z,27.23
2023-01-13T09:02:30.303Z,16.52
2023-01-13T09:07:31.778Z,28.52
2023-01-13T09:12:51.733Z,24.27
2023-01-13T09:17:53.177Z,21.90
2023-01-13T09:22:57.073Z,32.20
2023-01-13T09:27:58.465Z,21.20
2023-01-13T09:33:18.847Z,27.30
2023-01-13T09:38:26.616Z,25.08
2023-01-13T09:43:53.601Z,23.73
2023-01-13T09:48:55.977Z,26.63
2023-01-13T09:54:02.007Z,35.35
2023-01-13T09:59:03.506Z,19.80
2023-01-13T10:04:10.270Z,22.02
2023-01-13T10:09:18.932Z,23.52
2023-01-13T10:14:24.564Z,21.23
2023-01-13T10:19:29.347Z,20.95
2023-01-13T10:24:33.876Z,22.23
2023-01-13T10:29:36.292Z,19.35
2023-01-13T10:34:51.256Z,25.20
2023-01-13T10:39:56.441Z,17.27
2023-01-13T10:44:58.906Z,20.90
2023-01-13T10:50:21.322Z,21.52
2023-01-13T10:55:25.299Z,15.13
2023-01-13T11:00:28.840Z,21.98
2023-01-13T11:05:30.258Z,19.00
2023-01-13T11:10:32.684Z,17.75
2023-01-13T11:15:38.660Z,22.25
2023-01-13T11:20:42.123Z,22.48
2023-01-13T11:25:45.313Z,17.42
2023-01-13T11:30:55.548Z,18.73
2023-01-13T11:36:20.287Z,14.93
2023-01-13T11:41:25.036Z,17.52
2023-01-13T11:46:27.725Z,26.02
2023-01-13T11:51:34.643Z,21.17
2023-01-13T11:56:54.922Z,20.85
2023-01-13T12:02:05.317Z,15.57
2023-01-13T12:07:12.821Z,25.25
2023-01-13T12:12:20.226Z,19.15
2023-01-13T12:17:40.206Z,17.13
2023-01-13T12:22:42.491Z,17.95
2023-01-13T12:27:49.430Z,14.65
2023-01-13T12:32:52.496Z,14.77
2023-01-13T12:37:59.360Z,16.95
2023-01-13T12:43:38.717Z,15.80
2023-01-13T12:48:56.929Z,18.35
2023-01-13T12:53:58.674Z,19.25
2023-01-13T12:59:21.564Z,13.50
2023-01-13T13:04:52.027Z,12.10
2023-01-13T13:09:57.811Z,18.33
2023-01-13T13:15:03.003Z,13.02
2023-01-13T13:20:04.827Z,17.33
2023-01-13T13:25:06.239Z,20.00
2023-01-13T13:30:13.771Z,14.85
2023-01-13T13:35:24.882Z,15.63
2023-01-13T13:40:46.928Z,15.80
2023-01-13T13:46:10.390Z,15.85
2023-01-13T13:51:27.899Z,13.60
2023-01-13T13:56:32.385Z,16.77
2023-01-13T14:01:36.818Z,20.63
2023-01-13T14:06:38.323Z,17.50
2023-01-13T14:11:41.119Z,19.85
2023-01-13T14:16:42.870Z,16.52
2023-01-13T14:21:47.885Z,15.77
2023-01-13T14:26:53.093Z,16.00
2023-01-13T14:31:54.714Z,15.38
2023-01-13T14:36:56.119Z,18.50
2023-01-13T14:41:57.537Z,9.43
2023-01-13T14:47:00.573Z,13.45
2023-01-13T14:52:13.068Z,19.83
2023-01-13T14:57:32.140Z,19.58
2023-01-13T15:02:39.218Z,15.45
2023-01-13T15:07:41.660Z,12.57
2023-01-13T15:12:43.320Z,13.73
2023-01-13T15:17:46.877Z,12.18
2023-01-13T15:22:48.813Z,19.23
2023-01-13T15:27:51.015Z,19.30
2023-01-13T15:32:53.197Z,15.40
2023-01-13T15:37:55.593Z,18.73
2023-01-13T15:43:15.630Z,16.45
2023-01-13T15:48:17.226Z,21.27
2023-01-13T15:53:18.674Z,17.40
2023-01-13T15:58:20.879Z,18.23
2023-01-13T16:03:22.487Z,17.85
2023-01-13T16:08:24.123Z,17.98
2023-01-13T16:13:25.514Z,18.80
2023-01-13T16:18:27.326Z,19.98
2023-01-13T16:23:28.758Z,16.40
2023-01-13T16:28:30.197Z,15.63
2023-01-13T16:33:31.612Z,20.35
2023-01-13T16:38:33.015Z,19.20
2023-01-13T16:43:34.964Z,17.98
2023-01-13T16:48:36.447Z,18.17
2023-01-13T16:53:37.900Z,17.15
2023-01-13T16:58:39.344Z,18.60
2023-01-13T17:03:40.936Z,20.58
2023-01-13T17:08:42.678Z,18.45
2023-01-13T17:13:44.182Z,15.50
2023-01-13T17:18:47.177Z,18.83
2023-01-13T17:23:49.626Z,16.67
2023-01-13T17:28:51.051Z,16.23
2023-01-13T17:33:52.541Z,13.90
2023-01-13T17:38:54.221Z,17.40
2023-01-13T17:43:55.664Z,15.57
2023-01-13T17:48:57.072Z,17.90
2023-01-13T17:53:58.560Z,15.07
2023-01-13T17:58:59.996Z,18.25
2023-01-13T18:04:01.608Z,19.42
2023-01-13T18:09:03.044Z,13.98
2023-01-13T18:14:04.515Z,20.02
2023-01-13T18:19:24.735Z,17.33
2023-01-13T18:29:46.574Z,15.43
2023-01-13T18:34:49.099Z,16.13
2023-01-13T18:39:51.839Z,12.30
2023-01-13T18:44:54.191Z,13.07
2023-01-13T18:49:56.667Z,11.05
2023-01-13T18:54:58.150Z,15.48
2023-01-13T18:59:59.752Z,15.85
2023-01-13T19:05:01.197Z,15.27
2023-01-13T19:10:04.336Z,13.32
2023-01-13T19:15:06.140Z,11.52
2023-01-13T19:20:07.903Z,19.30
2023-01-13T19:25:09.545Z,16.98
2023-01-13T19:30:11.236Z,16.08
2023-01-13T19:35:13.263Z,12.55
2023-01-13T19:40:14.871Z,15.10
2023-01-13T19:45:29.458Z,10.02
2023-01-13T19:50:30.957Z,13.95
2023-01-13T19:55:32.445Z,11.48
2023-01-13T20:00:34.947Z,12.52
2023-01-13T20:05:36.579Z,14.45
2023-01-13T20:10:38.383Z,15.73
2023-01-13T20:15:40.476Z,15.95
2023-01-13T20:20:41.941Z,15.45
2023-01-13T20:25:43.426Z,18.48
2023-01-13T20:30:45.095Z,12.13
2023-01-13T20:35:56.106Z,12.30
2023-01-13T20:41:01.397Z,13.60
2023-01-13T20:46:03.607Z,10.55
2023-01-13T20:51:05.077Z,14.73
2023-01-13T20:56:07.146Z,15.70
2023-01-13T21:01:08.682Z,18.58
2023-01-13T21:06:10.260Z,13.18
2023-01-13T21:11:14.849Z,15.15
2023-01-13T21:16:16.707Z,19.45
2023-01-13T21:21:18.231Z,13.35
2023-01-13T21:26:21.074Z,16.63
2023-01-13T21:31:22.620Z,19.55
2023-01-13T21:36:24.887Z,17.02
2023-01-13T21:41:45.263Z,11.68
2023-01-13T21:47:05.394Z,13.80
2023-01-13T21:52:06.878Z,17.52
2023-01-13T21:57:08.373Z,18.73
2023-01-13T22:02:28.716Z,18.52
2023-01-13T22:07:32.418Z,16.80
2023-01-13T22:12:33.997Z,17.50
2023-01-13T22:17:35.483Z,15.48
2023-01-13T22:22:37.161Z,17.58
2023-01-13T22:27:44.508Z,19.98
2023-01-13T22:38:12.181Z,22.67
2023-01-13T22:43:14.267Z,20.85
2023-01-13T22:48:15.750Z,17.10
2023-01-13T22:53:17.177Z,18.25
2023-01-13T22:58:18.566Z,19.98
2023-01-13T23:03:20.055Z,15.45
2023-01-13T23:08:21.572Z,25.50
2023-01-13T23:13:22.960Z,23.80
2023-01-13T23:18:25.273Z,19.55
2023-01-13T23:23:26.727Z,21.38
2023-01-13T23:28:28.640Z,15.90
2023-01-13T23:33:30.043Z,16.63
2023-01-13T23:38:31.914Z,17.92
2023-01-13T23:43:33.325Z,16.00
2023-01-13T23:48:35.521Z,17.50
2023-01-13T23:53:40.372Z,19.75
2023-01-13T23:58:42.769Z,18.70
